EDVK/KSF METAR and TAF weather

Enter ICAO airport designator
Station Type Date Time Source
EDVK METAR 2019/10/15 08:50 UTC NOAA

EDVK 150850Z 14005KT CAVOK 18/12 Q1007


Station Type Date Time Source
EDVK Decoded METAR 2019/10/15 08:50 UTC NOAA

Kassel / Calden, Germany (EDVK) 51-24N 009-23E 283M
Oct 15, 2019 - 04:50 AM EDT / 2019.10.15 0850 UTC
Wind: from the SE (140 degrees) at 6 MPH (5 KT):0
Visibility: greater than 7 mile(s):0
Temperature: 64 F (18 C)
Dew Point: 53 F (12 C)
Relative Humidity: 67%
Pressure (altimeter): 29.74 in. Hg (1007 hPa)
ob: EDVK 150850Z 14005KT CAVOK 18/12 Q1007
cycle: 9

Station Type Date Time Source
EDVK TAF 2011/03/23 07:09 UTC NOAA

TAF COR EDVK 230655Z 2307/2321 30002KT 3500 BR SCT025 PROB30
TEMPO 2307/2309 1400 BCFG
BECMG 2307/2310 01007KT 8000

Example: see airport list